TAF KEKO
KEKO 280527Z 2806/2906 07004KT P6SM SKC FM282000 24004KT P6SM FEW200=
METAR KEKO
WC KEKO
WS KEKO
WV KEKO